sensor_id;sensor_type;location;lat;lon;timestamp;P1;durP1;ratioP1;P2;durP2;ratioP2
43690;SDS011;29293;52.190;21.226;2022-07-26T00:14:42;12.10;;;7.30;;
43690;SDS011;29293;52.190;21.226;2022-07-26T00:29:48;10.10;;;6.80;;
43690;SDS011;29293;52.190;21.226;2022-07-26T00:44:54;10.60;;;6.90;;
43690;SDS011;29293;52.190;21.226;2022-07-26T01:00:00;12.10;;;6.30;;
43690;SDS011;29293;52.190;21.226;2022-07-26T01:15:08;6.60;;;5.90;;
43690;SDS011;29293;52.190;21.226;2022-07-26T01:30:18;9.20;;;6.70;;
43690;SDS011;29293;52.190;21.226;2022-07-26T01:45:24;10.40;;;6.20;;
43690;SDS011;29293;52.190;21.226;2022-07-26T02:00:31;7.40;;;5.70;;
43690;SDS011;29293;52.190;21.226;2022-07-26T02:15:37;8.70;;;6.30;;
43690;SDS011;29293;52.190;21.226;2022-07-26T02:30:43;8.50;;;5.60;;
43690;SDS011;29293;52.190;21.226;2022-07-26T02:45:50;8.90;;;6.10;;
43690;SDS011;29293;52.190;21.226;2022-07-26T03:00:56;11.00;;;6.90;;
43690;SDS011;29293;52.190;21.226;2022-07-26T03:16:02;9.20;;;6.30;;
43690;SDS011;29293;52.190;21.226;2022-07-26T03:31:08;10.00;;;7.10;;
43690;SDS011;29293;52.190;21.226;2022-07-26T03:46:15;8.20;;;6.40;;
43690;SDS011;29293;52.190;21.226;2022-07-26T04:01:21;9.30;;;6.40;;
43690;SDS011;29293;52.190;21.226;2022-07-26T04:16:27;8.80;;;6.10;;
43690;SDS011;29293;52.190;21.226;2022-07-26T04:31:33;8.40;;;6.20;;
43690;SDS011;29293;52.190;21.226;2022-07-26T04:46:38;9.10;;;5.80;;
43690;SDS011;29293;52.190;21.226;2022-07-26T05:01:44;7.50;;;5.70;;
43690;SDS011;29293;52.190;21.226;2022-07-26T05:16:50;7.30;;;5.80;;
43690;SDS011;29293;52.190;21.226;2022-07-26T05:31:56;6.60;;;5.50;;
43690;SDS011;29293;52.190;21.226;2022-07-26T05:47:02;7.90;;;5.30;;
43690;SDS011;29293;52.190;21.226;2022-07-26T06:02:08;7.30;;;4.90;;
43690;SDS011;29293;52.190;21.226;2022-07-26T06:17:14;6.20;;;4.20;;
43690;SDS011;29293;52.190;21.226;2022-07-26T06:32:20;5.50;;;4.10;;
43690;SDS011;29293;52.190;21.226;2022-07-26T06:47:26;5.60;;;3.80;;
43690;SDS011;29293;52.190;21.226;2022-07-26T07:02:32;4.90;;;3.30;;
43690;SDS011;29293;52.190;21.226;2022-07-26T07:17:39;4.40;;;3.20;;
43690;SDS011;29293;52.190;21.226;2022-07-26T07:32:45;5.00;;;3.10;;
43690;SDS011;29293;52.190;21.226;2022-07-26T07:47:51;6.20;;;3.90;;
43690;SDS011;29293;52.190;21.226;2022-07-26T08:02:57;5.90;;;3.80;;
43690;SDS011;29293;52.190;21.226;2022-07-26T08:18:03;5.80;;;3.70;;
43690;SDS011;29293;52.190;21.226;2022-07-26T08:33:09;10.00;;;3.80;;
43690;SDS011;29293;52.190;21.226;2022-07-26T08:48:16;4.40;;;3.40;;
43690;SDS011;29293;52.190;21.226;2022-07-26T09:03:23;6.70;;;3.30;;
43690;SDS011;29293;52.190;21.226;2022-07-26T09:18:30;4.80;;;3.20;;
43690;SDS011;29293;52.190;21.226;2022-07-26T09:33:43;5.60;;;3.40;;
43690;SDS011;29293;52.190;21.226;2022-07-26T09:48:50;11.80;;;4.40;;
43690;SDS011;29293;52.190;21.226;2022-07-26T10:03:58;7.40;;;4.30;;
43690;SDS011;29293;52.190;21.226;2022-07-26T10:19:04;7.10;;;3.90;;
43690;SDS011;29293;52.190;21.226;2022-07-26T10:34:10;4.80;;;4.10;;
43690;SDS011;29293;52.190;21.226;2022-07-26T10:49:33;8.20;;;4.00;;
43690;SDS011;29293;52.190;21.226;2022-07-26T11:04:40;8.10;;;5.10;;
43690;SDS011;29293;52.190;21.226;2022-07-26T11:19:46;9.80;;;5.30;;
43690;SDS011;29293;52.190;21.226;2022-07-26T11:34:57;8.60;;;5.50;;
43690;SDS011;29293;52.190;21.226;2022-07-26T11:50:05;7.20;;;5.10;;
43690;SDS011;29293;52.190;21.226;2022-07-26T12:05:13;10.10;;;5.70;;
43690;SDS011;29293;52.190;21.226;2022-07-26T12:20:20;10.90;;;5.20;;
43690;SDS011;29293;52.190;21.226;2022-07-26T12:35:32;7.90;;;5.50;;
43690;SDS011;29293;52.190;21.226;2022-07-26T12:50:38;12.30;;;5.80;;
43690;SDS011;29293;52.190;21.226;2022-07-26T13:05:44;10.70;;;6.90;;
43690;SDS011;29293;52.190;21.226;2022-07-26T13:20:50;8.90;;;6.90;;
43690;SDS011;29293;52.190;21.226;2022-07-26T13:35:56;18.50;;;9.70;;
43690;SDS011;29293;52.190;21.226;2022-07-26T13:51:02;16.70;;;9.90;;
43690;SDS011;29293;52.190;21.226;2022-07-26T14:06:09;12.10;;;9.20;;
43690;SDS011;29293;52.190;21.226;2022-07-26T14:59:37;16.40;;;10.60;;
43690;SDS011;29293;52.190;21.226;2022-07-26T16:41:23;9.30;;;5.00;;
43690;SDS011;29293;52.190;21.226;2022-07-26T16:56:30;8.10;;;4.30;;
43690;SDS011;29293;52.190;21.226;2022-07-26T17:11:37;8.10;;;4.70;;
43690;SDS011;29293;52.190;21.226;2022-07-26T17:26:43;8.00;;;5.20;;
43690;SDS011;29293;52.190;21.226;2022-07-26T17:41:51;14.80;;;5.20;;
43690;SDS011;29293;52.190;21.226;2022-07-26T17:56:57;8.50;;;4.90;;
43690;SDS011;29293;52.190;21.226;2022-07-26T18:12:04;9.60;;;5.50;;
43690;SDS011;29293;52.190;21.226;2022-07-26T18:27:10;10.20;;;6.10;;
43690;SDS011;29293;52.190;21.226;2022-07-26T18:42:19;11.90;;;5.80;;
43690;SDS011;29293;52.190;21.226;2022-07-26T18:57:25;12.60;;;5.80;;
43690;SDS011;29293;52.190;21.226;2022-07-26T19:12:50;17.30;;;6.30;;
43690;SDS011;29293;52.190;21.226;2022-07-26T19:27:58;11.10;;;6.70;;
43690;SDS011;29293;52.190;21.226;2022-07-26T19:43:04;11.80;;;7.40;;
43690;SDS011;29293;52.190;21.226;2022-07-26T19:58:11;10.20;;;6.60;;
43690;SDS011;29293;52.190;21.226;2022-07-26T20:13:17;16.90;;;7.60;;
43690;SDS011;29293;52.190;21.226;2022-07-26T20:28:31;11.60;;;7.80;;
43690;SDS011;29293;52.190;21.226;2022-07-26T20:43:37;17.70;;;9.40;;
43690;SDS011;29293;52.190;21.226;2022-07-26T20:58:53;13.50;;;8.70;;
43690;SDS011;29293;52.190;21.226;2022-07-26T21:13:59;15.80;;;9.30;;
43690;SDS011;29293;52.190;21.226;2022-07-26T21:29:13;12.70;;;7.50;;
